Aérodrome :
LOGIN :

S'inscrire | Disclaimer

   EN    FR    IT 

 










Légende :    VFR   VFR Marginal   IFR   IFR Intensif   IFR Très Intensif
Visi : 
Plafond : 
>= 8 km
>= 3000ft
5 à 8 km
1000 à 3000 ft
1500m à 5 km
500 à 1000 ft
800 à 1500m
200 à 500 ft
< 800m
< 200 ft
Symboles :   Orages  Brouillard  Fortes neiges  Fortes précipitations  Vent > 20 kt
SIGMETs :   Divers  Orages  Givrage  Turbulence  Onde Orograph.  Cendres Volcan.







- Altitude de l'aérodrome : 72 ft
- Code IATA : UDE


EHVK - Volkel Airbase

DERNIER METAR :
  • 182255Z AUTO 21003KT 190V250 9999 OVC230/// 15/13 Q1016 BLU

METARs EXPIRÉS :
  • 182225Z AUTO 18002KT 9999 BKN220 16/13 Q1016 BLU
  • 182155Z AUTO 21004KT 9999 OVC200 16/13 Q1015 BLU
  • 182125Z AUTO 26007KT 230V290 9999 OVC210 18/13 Q1015 BLU
  • 182055Z AUTO 25005KT 9999 BKN210 BKN260 18/13 Q1015 BLU
  • 182025Z AUTO 25007KT 210V290 9999 OVC210 19/13 Q1015 BLU

TAF TAF EHVK
Valide du 18 à 21h jusqu'au 19 à 09h UTC


182032Z 1821/1909 25005KT CAVOK
BECMG 1900/1903 18005KT
Pas de NOTAMs connus pour ce terrain.



MET'MAP, la Météo Aéronautique d'un coup d'oeil ! - Copyright ORBIFLY Décembre 2007 - Disclaimer

ORBIFLY MET'MAP TEAM :

Programmation & Développement : Alexandra Zaïnal
Conception & Développement : Baudouin d'Aumeries
Co-Programmation & Développement : Marc-Olivier Méhu
Soutien technique & logistique : Manuel Goepfert

Contact : metmap@orbifly.com




SOURCES & CREDITS :

   NOAA